sensor_id;sensor_type;location;lat;lon;timestamp;temperature;humidity
29539;DHT22;16482;51.046;4.498;2023-03-14T00:00:49;23.50;37.30
29539;DHT22;16482;51.046;4.498;2023-03-14T00:03:24;23.50;37.20
29539;DHT22;16482;51.046;4.498;2023-03-14T00:05:53;23.60;37.20
29539;DHT22;16482;51.046;4.498;2023-03-14T00:08:21;23.60;37.10
29539;DHT22;16482;51.046;4.498;2023-03-14T00:10:52;23.60;37.10
29539;DHT22;16482;51.046;4.498;2023-03-14T00:13:21;23.60;37.00
29539;DHT22;16482;51.046;4.498;2023-03-14T00:16:04;23.50;37.00
29539;DHT22;16482;51.046;4.498;2023-03-14T00:18:31;23.60;36.90
29539;DHT22;16482;51.046;4.498;2023-03-14T00:20:58;23.50;36.80
29539;DHT22;16482;51.046;4.498;2023-03-14T00:23:25;23.50;36.80
29539;DHT22;16482;51.046;4.498;2023-03-14T00:25:53;23.50;36.80
29539;DHT22;16482;51.046;4.498;2023-03-14T00:28:21;23.60;36.80
29539;DHT22;16482;51.046;4.498;2023-03-14T00:30:56;23.60;36.70
29539;DHT22;16482;51.046;4.498;2023-03-14T00:33:23;23.60;36.60
29539;DHT22;16482;51.046;4.498;2023-03-14T00:36:00;23.50;36.60
29539;DHT22;16482;51.046;4.498;2023-03-14T00:38:27;23.60;36.50
29539;DHT22;16482;51.046;4.498;2023-03-14T00:40:53;23.60;36.60
29539;DHT22;16482;51.046;4.498;2023-03-14T00:43:23;23.60;36.50
29539;DHT22;16482;51.046;4.498;2023-03-14T00:45:52;23.50;36.50
29539;DHT22;16482;51.046;4.498;2023-03-14T00:48:21;23.60;36.60
29539;DHT22;16482;51.046;4.498;2023-03-14T00:50:54;23.60;36.60
29539;DHT22;16482;51.046;4.498;2023-03-14T00:53:23;23.60;36.60
29539;DHT22;16482;51.046;4.498;2023-03-14T00:55:51;23.50;36.60
29539;DHT22;16482;51.046;4.498;2023-03-14T00:58:20;23.50;36.60
29539;DHT22;16482;51.046;4.498;2023-03-14T01:00:53;23.50;36.60
29539;DHT22;16482;51.046;4.498;2023-03-14T01:03:22;23.50;36.60
29539;DHT22;16482;51.046;4.498;2023-03-14T01:05:49;23.50;36.60
29539;DHT22;16482;51.046;4.498;2023-03-14T01:08:22;23.50;36.60
29539;DHT22;16482;51.046;4.498;2023-03-14T01:10:57;23.50;36.60
29539;DHT22;16482;51.046;4.498;2023-03-14T01:13:23;23.50;36.50
29539;DHT22;16482;51.046;4.498;2023-03-14T01:15:52;23.50;36.60
29539;DHT22;16482;51.046;4.498;2023-03-14T01:18:21;23.50;36.60
29539;DHT22;16482;51.046;4.498;2023-03-14T01:20:54;23.50;36.50
29539;DHT22;16482;51.046;4.498;2023-03-14T01:23:20;23.50;36.50
29539;DHT22;16482;51.046;4.498;2023-03-14T01:25:52;23.50;36.60
29539;DHT22;16482;51.046;4.498;2023-03-14T01:28:26;23.50;36.50
29539;DHT22;16482;51.046;4.498;2023-03-14T01:30:52;23.50;36.50
29539;DHT22;16482;51.046;4.498;2023-03-14T01:33:26;23.50;36.60
29539;DHT22;16482;51.046;4.498;2023-03-14T01:35:51;23.50;36.50
29539;DHT22;16482;51.046;4.498;2023-03-14T01:38:25;23.50;36.60
29539;DHT22;16482;51.046;4.498;2023-03-14T01:40:51;23.50;36.50
29539;DHT22;16482;51.046;4.498;2023-03-14T01:43:20;23.50;36.50
29539;DHT22;16482;51.046;4.498;2023-03-14T01:51:24;23.50;36.40
29539;DHT22;16482;51.046;4.498;2023-03-14T01:53:53;23.50;36.50
29539;DHT22;16482;51.046;4.498;2023-03-14T01:56:19;23.50;36.50
29539;DHT22;16482;51.046;4.498;2023-03-14T01:58:48;23.50;36.50
29539;DHT22;16482;51.046;4.498;2023-03-14T02:01:21;23.50;36.40
29539;DHT22;16482;51.046;4.498;2023-03-14T02:03:53;23.50;36.40
29539;DHT22;16482;51.046;4.498;2023-03-14T02:06:22;23.50;36.40
29539;DHT22;16482;51.046;4.498;2023-03-14T02:08:50;23.50;36.40
29539;DHT22;16482;51.046;4.498;2023-03-14T02:11:17;23.50;36.30
29539;DHT22;16482;51.046;4.498;2023-03-14T02:13:44;23.50;36.40
29539;DHT22;16482;51.046;4.498;2023-03-14T02:16:10;23.50;36.30
29539;DHT22;16482;51.046;4.498;2023-03-14T02:18:37;23.50;36.30
29539;DHT22;16482;51.046;4.498;2023-03-14T02:21:24;23.50;36.30
29539;DHT22;16482;51.046;4.498;2023-03-14T02:27:14;23.50;36.30
29539;DHT22;16482;51.046;4.498;2023-03-14T02:29:48;23.50;36.20
29539;DHT22;16482;51.046;4.498;2023-03-14T02:32:16;23.50;36.30
29539;DHT22;16482;51.046;4.498;2023-03-14T02:34:46;23.50;36.20
29539;DHT22;16482;51.046;4.498;2023-03-14T02:37:14;23.50;36.20
29539;DHT22;16482;51.046;4.498;2023-03-14T02:39:43;23.50;36.20
29539;DHT22;16482;51.046;4.498;2023-03-14T02:42:11;23.50;36.30
29539;DHT22;16482;51.046;4.498;2023-03-14T02:44:48;23.50;36.30
29539;DHT22;16482;51.046;4.498;2023-03-14T02:47:14;23.40;36.30
29539;DHT22;16482;51.046;4.498;2023-03-14T02:49:43;23.50;36.30
29539;DHT22;16482;51.046;4.498;2023-03-14T02:52:09;23.50;36.40
29539;DHT22;16482;51.046;4.498;2023-03-14T02:54:35;23.40;36.40
29539;DHT22;16482;51.046;4.498;2023-03-14T02:57:03;23.50;36.50
29539;DHT22;16482;51.046;4.498;2023-03-14T02:59:29;23.50;36.50
29539;DHT22;16482;51.046;4.498;2023-03-14T03:01:54;23.40;36.50
29539;DHT22;16482;51.046;4.498;2023-03-14T03:04:20;23.50;36.60
29539;DHT22;16482;51.046;4.498;2023-03-14T03:06:46;23.50;36.60
29539;DHT22;16482;51.046;4.498;2023-03-14T03:09:12;23.50;36.70
29539;DHT22;16482;51.046;4.498;2023-03-14T03:11:45;23.50;36.80
29539;DHT22;16482;51.046;4.498;2023-03-14T03:14:11;23.50;36.80
29539;DHT22;16482;51.046;4.498;2023-03-14T03:16:44;23.40;36.90
29539;DHT22;16482;51.046;4.498;2023-03-14T03:19:10;23.50;37.00
29539;DHT22;16482;51.046;4.498;2023-03-14T03:21:42;23.40;37.00
29539;DHT22;16482;51.046;4.498;2023-03-14T03:24:10;23.50;37.10
29539;DHT22;16482;51.046;4.498;2023-03-14T03:26:44;23.50;37.10
29539;DHT22;16482;51.046;4.498;2023-03-14T03:29:12;23.50;37.70
29539;DHT22;16482;51.046;4.498;2023-03-14T03:31:41;23.40;37.20
29539;DHT22;16482;51.046;4.498;2023-03-14T03:34:10;23.50;37.20
29539;DHT22;16482;51.046;4.498;2023-03-14T03:36:41;23.50;37.30
29539;DHT22;16482;51.046;4.498;2023-03-14T03:39:16;23.40;37.30
29539;DHT22;16482;51.046;4.498;2023-03-14T03:41:42;23.40;37.30
29539;DHT22;16482;51.046;4.498;2023-03-14T03:44:10;23.40;37.40
29539;DHT22;16482;51.046;4.498;2023-03-14T03:46:46;23.40;37.50
29539;DHT22;16482;51.046;4.498;2023-03-14T03:49:12;23.40;37.50
29539;DHT22;16482;51.046;4.498;2023-03-14T03:51:43;23.40;37.60
29539;DHT22;16482;51.046;4.498;2023-03-14T03:54:12;23.40;37.60
29539;DHT22;16482;51.046;4.498;2023-03-14T03:56:41;23.40;37.70
29539;DHT22;16482;51.046;4.498;2023-03-14T03:59:14;23.40;37.80
29539;DHT22;16482;51.046;4.498;2023-03-14T04:01:43;23.40;37.80
29539;DHT22;16482;51.046;4.498;2023-03-14T04:04:18;23.40;37.80
29539;DHT22;16482;51.046;4.498;2023-03-14T04:06:44;23.40;37.80
29539;DHT22;16482;51.046;4.498;2023-03-14T04:09:11;23.30;37.80
29539;DHT22;16482;51.046;4.498;2023-03-14T04:11:44;23.40;37.90
29539;DHT22;16482;51.046;4.498;2023-03-14T04:14:12;23.40;37.90
29539;DHT22;16482;51.046;4.498;2023-03-14T04:16:41;23.40;37.90
29539;DHT22;16482;51.046;4.498;2023-03-14T04:19:15;23.40;37.90
29539;DHT22;16482;51.046;4.498;2023-03-14T04:21:43;23.40;38.00
29539;DHT22;16482;51.046;4.498;2023-03-14T04:24:10;23.30;37.90
29539;DHT22;16482;51.046;4.498;2023-03-14T04:26:43;23.40;38.60
29539;DHT22;16482;51.046;4.498;2023-03-14T04:29:09;23.40;38.00
29539;DHT22;16482;51.046;4.498;2023-03-14T04:31:44;23.30;38.00
29539;DHT22;16482;51.046;4.498;2023-03-14T04:34:13;23.40;38.00
29539;DHT22;16482;51.046;4.498;2023-03-14T04:36:41;23.40;38.10
29539;DHT22;16482;51.046;4.498;2023-03-14T04:39:09;23.30;38.10
29539;DHT22;16482;51.046;4.498;2023-03-14T04:41:44;23.30;38.10
29539;DHT22;16482;51.046;4.498;2023-03-14T04:44:11;23.30;38.20
29539;DHT22;16482;51.046;4.498;2023-03-14T04:46:44;23.30;38.30
29539;DHT22;16482;51.046;4.498;2023-03-14T04:49:13;23.30;38.40
29539;DHT22;16482;51.046;4.498;2023-03-14T04:51:41;23.20;38.50
29539;DHT22;16482;51.046;4.498;2023-03-14T04:54:14;23.20;38.50
29539;DHT22;16482;51.046;4.498;2023-03-14T04:56:43;23.20;38.50
29539;DHT22;16482;51.046;4.498;2023-03-14T04:59:17;23.30;38.50
29539;DHT22;16482;51.046;4.498;2023-03-14T05:01:43;23.30;38.50
29539;DHT22;16482;51.046;4.498;2023-03-14T05:04:12;23.20;38.50
29539;DHT22;16482;51.046;4.498;2023-03-14T05:06:43;23.30;38.60
29539;DHT22;16482;51.046;4.498;2023-03-14T05:09:12;23.30;38.60
29539;DHT22;16482;51.046;4.498;2023-03-14T05:11:45;23.30;38.70
29539;DHT22;16482;51.046;4.498;2023-03-14T05:14:14;23.30;38.70
29539;DHT22;16482;51.046;4.498;2023-03-14T05:16:47;23.30;38.70
29539;DHT22;16482;51.046;4.498;2023-03-14T05:19:15;23.30;38.70
29539;DHT22;16482;51.046;4.498;2023-03-14T05:21:44;23.30;38.70
29539;DHT22;16482;51.046;4.498;2023-03-14T05:24:13;23.30;38.70
29539;DHT22;16482;51.046;4.498;2023-03-14T05:26:44;23.30;38.80
29539;DHT22;16482;51.046;4.498;2023-03-14T05:29:18;23.30;38.80
29539;DHT22;16482;51.046;4.498;2023-03-14T05:31:43;23.30;39.40
29539;DHT22;16482;51.046;4.498;2023-03-14T05:34:18;23.30;38.80
29539;DHT22;16482;51.046;4.498;2023-03-14T05:36:44;23.30;38.80
29539;DHT22;16482;51.046;4.498;2023-03-14T05:39:18;23.20;38.80
29539;DHT22;16482;51.046;4.498;2023-03-14T05:41:44;23.20;38.80
29539;DHT22;16482;51.046;4.498;2023-03-14T05:44:17;23.30;38.90
29539;DHT22;16482;51.046;4.498;2023-03-14T05:46:43;23.30;39.00
29539;DHT22;16482;51.046;4.498;2023-03-14T05:49:18;23.30;39.00
29539;DHT22;16482;51.046;4.498;2023-03-14T05:51:43;23.20;38.90
29539;DHT22;16482;51.046;4.498;2023-03-14T05:54:18;23.20;38.90
29539;DHT22;16482;51.046;4.498;2023-03-14T05:56:44;23.30;38.90
29539;DHT22;16482;51.046;4.498;2023-03-14T05:59:18;23.20;38.90
29539;DHT22;16482;51.046;4.498;2023-03-14T06:01:47;23.30;39.00
29539;DHT22;16482;51.046;4.498;2023-03-14T06:04:15;23.20;38.90
29539;DHT22;16482;51.046;4.498;2023-03-14T06:06:44;23.30;38.90
29539;DHT22;16482;51.046;4.498;2023-03-14T06:09:19;23.20;38.80
29539;DHT22;16482;51.046;4.498;2023-03-14T06:11:47;23.20;38.80
29539;DHT22;16482;51.046;4.498;2023-03-14T06:14:16;23.20;39.00
29539;DHT22;16482;51.046;4.498;2023-03-14T06:16:44;23.20;38.90
29539;DHT22;16482;51.046;4.498;2023-03-14T06:19:18;23.20;38.70
29539;DHT22;16482;51.046;4.498;2023-03-14T06:21:44;23.20;38.80
29539;DHT22;16482;51.046;4.498;2023-03-14T06:24:19;23.20;38.70
29539;DHT22;16482;51.046;4.498;2023-03-14T06:26:45;23.30;38.80
29539;DHT22;16482;51.046;4.498;2023-03-14T06:29:13;23.30;38.80
29539;DHT22;16482;51.046;4.498;2023-03-14T06:31:46;23.30;38.80
29539;DHT22;16482;51.046;4.498;2023-03-14T06:34:14;23.30;38.60
29539;DHT22;16482;51.046;4.498;2023-03-14T06:36:43;23.30;38.60
29539;DHT22;16482;51.046;4.498;2023-03-14T06:39:18;23.40;38.50
29539;DHT22;16482;51.046;4.498;2023-03-14T06:41:45;23.50;38.50
29539;DHT22;16482;51.046;4.498;2023-03-14T06:44:16;23.50;38.40
29539;DHT22;16482;51.046;4.498;2023-03-14T06:46:44;23.60;38.50
29539;DHT22;16482;51.046;4.498;2023-03-14T06:49:18;23.60;38.40
29539;DHT22;16482;51.046;4.498;2023-03-14T06:51:46;23.60;38.30
29539;DHT22;16482;51.046;4.498;2023-03-14T06:54:14;23.70;38.30
29539;DHT22;16482;51.046;4.498;2023-03-14T06:56:49;23.70;38.20
29539;DHT22;16482;51.046;4.498;2023-03-14T06:59:15;23.80;38.10
29539;DHT22;16482;51.046;4.498;2023-03-14T07:01:43;23.80;38.10
29539;DHT22;16482;51.046;4.498;2023-03-14T07:04:12;23.80;38.00
29539;DHT22;16482;51.046;4.498;2023-03-14T07:06:49;23.80;38.00
29539;DHT22;16482;51.046;4.498;2023-03-14T07:09:15;23.80;37.90
29539;DHT22;16482;51.046;4.498;2023-03-14T07:11:47;23.90;37.80
29539;DHT22;16482;51.046;4.498;2023-03-14T07:14:16;23.90;37.80
29539;DHT22;16482;51.046;4.498;2023-03-14T07:16:49;24.00;37.80
29539;DHT22;16482;51.046;4.498;2023-03-14T07:19:15;24.00;37.60
29539;DHT22;16482;51.046;4.498;2023-03-14T07:21:44;24.00;37.60
29539;DHT22;16482;51.046;4.498;2023-03-14T07:24:17;24.00;37.50
29539;DHT22;16482;51.046;4.498;2023-03-14T07:26:43;24.00;37.40
29539;DHT22;16482;51.046;4.498;2023-03-14T07:29:11;24.00;37.40
29539;DHT22;16482;51.046;4.498;2023-03-14T07:31:55;24.00;37.30
29539;DHT22;16482;51.046;4.498;2023-03-14T07:34:21;24.00;37.10
29539;DHT22;16482;51.046;4.498;2023-03-14T07:36:46;24.00;37.10
29539;DHT22;16482;51.046;4.498;2023-03-14T07:39:15;24.10;37.10
29539;DHT22;16482;51.046;4.498;2023-03-14T07:41:43;24.10;37.00
29539;DHT22;16482;51.046;4.498;2023-03-14T07:44:18;24.10;37.00
29539;DHT22;16482;51.046;4.498;2023-03-14T07:46:47;24.10;36.90
29539;DHT22;16482;51.046;4.498;2023-03-14T07:49:13;24.10;36.80
29539;DHT22;16482;51.046;4.498;2023-03-14T07:51:56;24.10;36.80
29539;DHT22;16482;51.046;4.498;2023-03-14T07:54:23;24.10;36.60
29539;DHT22;16482;51.046;4.498;2023-03-14T07:56:50;24.10;36.60
29539;DHT22;16482;51.046;4.498;2023-03-14T07:59:18;24.20;36.60
29539;DHT22;16482;51.046;4.498;2023-03-14T08:01:46;24.20;36.50
29539;DHT22;16482;51.046;4.498;2023-03-14T08:04:14;24.20;36.50
29539;DHT22;16482;51.046;4.498;2023-03-14T08:06:48;24.20;36.40
29539;DHT22;16482;51.046;4.498;2023-03-14T08:09:13;24.20;36.30
29539;DHT22;16482;51.046;4.498;2023-03-14T08:11:48;24.20;36.40
29539;DHT22;16482;51.046;4.498;2023-03-14T08:14:14;24.20;36.20
29539;DHT22;16482;51.046;4.498;2023-03-14T08:16:45;24.20;36.20
29539;DHT22;16482;51.046;4.498;2023-03-14T08:19:13;24.30;36.20
29539;DHT22;16482;51.046;4.498;2023-03-14T08:21:48;24.20;36.20
29539;DHT22;16482;51.046;4.498;2023-03-14T08:24:14;24.30;36.20
29539;DHT22;16482;51.046;4.498;2023-03-14T08:26:47;24.20;36.20
29539;DHT22;16482;51.046;4.498;2023-03-14T08:29:13;24.20;36.20
29539;DHT22;16482;51.046;4.498;2023-03-14T08:31:46;24.20;36.20
29539;DHT22;16482;51.046;4.498;2023-03-14T08:34:14;24.30;36.20
29539;DHT22;16482;51.046;4.498;2023-03-14T08:36:58;24.20;36.10
29539;DHT22;16482;51.046;4.498;2023-03-14T08:39:24;24.20;36.10
29539;DHT22;16482;51.046;4.498;2023-03-14T08:41:50;24.20;36.10
29539;DHT22;16482;51.046;4.498;2023-03-14T08:44:15;24.20;36.10
29539;DHT22;16482;51.046;4.498;2023-03-14T08:46:44;24.20;36.00
29539;DHT22;16482;51.046;4.498;2023-03-14T08:49:16;24.20;36.00
29539;DHT22;16482;51.046;4.498;2023-03-14T08:51:45;24.20;36.00
29539;DHT22;16482;51.046;4.498;2023-03-14T08:54:18;24.20;36.00
29539;DHT22;16482;51.046;4.498;2023-03-14T08:56:44;24.20;36.00
29539;DHT22;16482;51.046;4.498;2023-03-14T08:59:13;24.10;36.00
29539;DHT22;16482;51.046;4.498;2023-03-14T09:01:46;24.10;36.00
29539;DHT22;16482;51.046;4.498;2023-03-14T09:04:19;24.10;35.90
29539;DHT22;16482;51.046;4.498;2023-03-14T09:06:45;24.10;36.00
29539;DHT22;16482;51.046;4.498;2023-03-14T09:09:16;24.10;36.00
29539;DHT22;16482;51.046;4.498;2023-03-14T09:11:45;24.10;35.90
29539;DHT22;16482;51.046;4.498;2023-03-14T09:14:16;24.00;36.00
29539;DHT22;16482;51.046;4.498;2023-03-14T09:16:44;24.00;35.90
29539;DHT22;16482;51.046;4.498;2023-03-14T09:19:20;24.00;35.90
29539;DHT22;16482;51.046;4.498;2023-03-14T09:21:49;24.10;35.80
29539;DHT22;16482;51.046;4.498;2023-03-14T09:24:15;24.00;35.80
29539;DHT22;16482;51.046;4.498;2023-03-14T09:26:44;23.90;35.90
29539;DHT22;16482;51.046;4.498;2023-03-14T09:29:15;23.90;35.80
29539;DHT22;16482;51.046;4.498;2023-03-14T09:31:47;23.90;35.70
29539;DHT22;16482;51.046;4.498;2023-03-14T09:34:15;24.00;35.80
29539;DHT22;16482;51.046;4.498;2023-03-14T09:36:44;23.90;35.80
29539;DHT22;16482;51.046;4.498;2023-03-14T09:39:19;23.90;35.70
29539;DHT22;16482;51.046;4.498;2023-03-14T09:41:50;23.90;35.70
29539;DHT22;16482;51.046;4.498;2023-03-14T09:46:51;23.80;35.50
29539;DHT22;16482;51.046;4.498;2023-03-14T09:49:31;23.80;35.40
29539;DHT22;16482;51.046;4.498;2023-03-14T09:51:59;23.70;36.10
29539;DHT22;16482;51.046;4.498;2023-03-14T09:54:43;23.70;35.60
29539;DHT22;16482;51.046;4.498;2023-03-14T09:57:17;23.70;35.40
29539;DHT22;16482;51.046;4.498;2023-03-14T09:59:45;23.70;35.40
29539;DHT22;16482;51.046;4.498;2023-03-14T10:04:46;23.70;35.40
29539;DHT22;16482;51.046;4.498;2023-03-14T10:07:14;23.70;35.40
29539;DHT22;16482;51.046;4.498;2023-03-14T10:09:43;23.70;35.40
29539;DHT22;16482;51.046;4.498;2023-03-14T10:12:10;23.70;35.50
29539;DHT22;16482;51.046;4.498;2023-03-14T10:14:37;23.60;35.60
29539;DHT22;16482;51.046;4.498;2023-03-14T10:17:13;23.60;35.70
29539;DHT22;16482;51.046;4.498;2023-03-14T10:19:55;23.60;35.80
29539;DHT22;16482;51.046;4.498;2023-03-14T10:22:24;23.60;35.70
29539;DHT22;16482;51.046;4.498;2023-03-14T10:24:54;23.60;35.70
29539;DHT22;16482;51.046;4.498;2023-03-14T10:27:27;23.70;35.50
29539;DHT22;16482;51.046;4.498;2023-03-14T10:30:28;23.60;35.30
29539;DHT22;16482;51.046;4.498;2023-03-14T10:32:55;23.70;35.30
29539;DHT22;16482;51.046;4.498;2023-03-14T10:35:22;23.60;35.20
29539;DHT22;16482;51.046;4.498;2023-03-14T10:37:57;23.60;35.10
29539;DHT22;16482;51.046;4.498;2023-03-14T10:40:42;23.70;35.10
29539;DHT22;16482;51.046;4.498;2023-03-14T10:43:15;23.60;35.00
29539;DHT22;16482;51.046;4.498;2023-03-14T10:45:43;23.60;34.90
29539;DHT22;16482;51.046;4.498;2023-03-14T10:48:33;23.70;34.90
29539;DHT22;16482;51.046;4.498;2023-03-14T10:53:42;23.60;35.00
29539;DHT22;16482;51.046;4.498;2023-03-14T10:56:20;23.60;34.90
29539;DHT22;16482;51.046;4.498;2023-03-14T10:58:47;23.60;35.00
29539;DHT22;16482;51.046;4.498;2023-03-14T11:04:24;23.60;35.20
29539;DHT22;16482;51.046;4.498;2023-03-14T11:07:03;23.60;35.40
29539;DHT22;16482;51.046;4.498;2023-03-14T11:12:38;23.70;35.60
29539;DHT22;16482;51.046;4.498;2023-03-14T11:20:59;23.70;35.90
29539;DHT22;16482;51.046;4.498;2023-03-14T11:28:58;23.70;35.80
29539;DHT22;16482;51.046;4.498;2023-03-14T11:31:29;23.70;35.70
29539;DHT22;16482;51.046;4.498;2023-03-14T11:34:17;23.70;35.80
29539;DHT22;16482;51.046;4.498;2023-03-14T11:40:17;23.70;35.60
29539;DHT22;16482;51.046;4.498;2023-03-14T11:42:46;23.70;35.70
29539;DHT22;16482;51.046;4.498;2023-03-14T11:45:30;23.70;35.60
29539;DHT22;16482;51.046;4.498;2023-03-14T11:48:12;23.70;35.50
29539;DHT22;16482;51.046;4.498;2023-03-14T11:50:42;23.70;35.50
29539;DHT22;16482;51.046;4.498;2023-03-14T11:59:04;23.70;35.50
29539;DHT22;16482;51.046;4.498;2023-03-14T12:01:45;23.70;35.50
29539;DHT22;16482;51.046;4.498;2023-03-14T12:06:56;23.70;35.50
29539;DHT22;16482;51.046;4.498;2023-03-14T12:09:24;23.70;35.60
29539;DHT22;16482;51.046;4.498;2023-03-14T12:11:52;23.70;35.50
29539;DHT22;16482;51.046;4.498;2023-03-14T12:14:27;23.70;35.50
29539;DHT22;16482;51.046;4.498;2023-03-14T12:16:57;23.70;35.60
29539;DHT22;16482;51.046;4.498;2023-03-14T12:21:51;23.60;35.70
29539;DHT22;16482;51.046;4.498;2023-03-14T12:24:20;23.60;35.60
29539;DHT22;16482;51.046;4.498;2023-03-14T12:26:56;23.70;35.70
29539;DHT22;16482;51.046;4.498;2023-03-14T12:29:23;23.70;35.50
29539;DHT22;16482;51.046;4.498;2023-03-14T12:32:07;23.70;35.50
29539;DHT22;16482;51.046;4.498;2023-03-14T12:34:34;23.70;35.50
29539;DHT22;16482;51.046;4.498;2023-03-14T12:37:14;23.70;35.70
29539;DHT22;16482;51.046;4.498;2023-03-14T12:40:04;23.70;35.60
29539;DHT22;16482;51.046;4.498;2023-03-14T12:45:31;23.70;35.60
29539;DHT22;16482;51.046;4.498;2023-03-14T12:48:24;23.70;35.60
29539;DHT22;16482;51.046;4.498;2023-03-14T12:51:03;23.70;35.50
29539;DHT22;16482;51.046;4.498;2023-03-14T12:56:22;23.80;35.50
29539;DHT22;16482;51.046;4.498;2023-03-14T13:04:36;23.80;35.30
29539;DHT22;16482;51.046;4.498;2023-03-14T13:07:13;23.80;35.40
29539;DHT22;16482;51.046;4.498;2023-03-14T13:15:19;23.70;35.10
29539;DHT22;16482;51.046;4.498;2023-03-14T13:17:48;23.70;35.00
29539;DHT22;16482;51.046;4.498;2023-03-14T13:20:34;23.70;35.00
29539;DHT22;16482;51.046;4.498;2023-03-14T13:23:01;23.80;34.90
29539;DHT22;16482;51.046;4.498;2023-03-14T13:25:33;23.70;34.90
29539;DHT22;16482;51.046;4.498;2023-03-14T13:28:01;23.80;34.80
29539;DHT22;16482;51.046;4.498;2023-03-14T13:30:29;23.70;34.70
29539;DHT22;16482;51.046;4.498;2023-03-14T13:33:04;23.70;34.70
29539;DHT22;16482;51.046;4.498;2023-03-14T13:35:40;23.80;34.70
29539;DHT22;16482;51.046;4.498;2023-03-14T13:41:08;23.80;34.50
29539;DHT22;16482;51.046;4.498;2023-03-14T13:43:39;23.70;34.60
29539;DHT22;16482;51.046;4.498;2023-03-14T13:46:15;23.80;34.70
29539;DHT22;16482;51.046;4.498;2023-03-14T13:48:48;23.70;34.60
29539;DHT22;16482;51.046;4.498;2023-03-14T13:51:16;23.80;34.60
29539;DHT22;16482;51.046;4.498;2023-03-14T13:53:47;23.70;34.40
29539;DHT22;16482;51.046;4.498;2023-03-14T13:56:20;23.70;34.40
29539;DHT22;16482;51.046;4.498;2023-03-14T13:58:46;23.70;34.30
29539;DHT22;16482;51.046;4.498;2023-03-14T14:01:16;23.70;34.10
29539;DHT22;16482;51.046;4.498;2023-03-14T14:03:46;23.70;34.00
29539;DHT22;16482;51.046;4.498;2023-03-14T14:09:27;23.70;33.70
29539;DHT22;16482;51.046;4.498;2023-03-14T14:12:23;23.70;33.50
29539;DHT22;16482;51.046;4.498;2023-03-14T14:14:55;23.70;33.40
29539;DHT22;16482;51.046;4.498;2023-03-14T14:17:47;23.70;33.20
29539;DHT22;16482;51.046;4.498;2023-03-14T14:20:35;23.70;32.80
29539;DHT22;16482;51.046;4.498;2023-03-14T14:23:04;23.70;32.80
29539;DHT22;16482;51.046;4.498;2023-03-14T14:25:31;23.70;32.60
29539;DHT22;16482;51.046;4.498;2023-03-14T14:27:58;23.60;32.70
29539;DHT22;16482;51.046;4.498;2023-03-14T14:32:52;23.60;32.00
29539;DHT22;16482;51.046;4.498;2023-03-14T14:35:24;23.60;31.80
29539;DHT22;16482;51.046;4.498;2023-03-14T14:37:50;23.60;31.50
29539;DHT22;16482;51.046;4.498;2023-03-14T14:40:28;23.60;31.20
29539;DHT22;16482;51.046;4.498;2023-03-14T14:43:01;23.60;31.00
29539;DHT22;16482;51.046;4.498;2023-03-14T14:45:28;23.50;30.80
29539;DHT22;16482;51.046;4.498;2023-03-14T14:48:06;23.50;30.60
29539;DHT22;16482;51.046;4.498;2023-03-14T14:50:44;23.50;30.40
29539;DHT22;16482;51.046;4.498;2023-03-14T14:53:27;23.50;30.30
29539;DHT22;16482;51.046;4.498;2023-03-14T14:55:58;23.40;30.70
29539;DHT22;16482;51.046;4.498;2023-03-14T14:58:29;23.40;30.00
29539;DHT22;16482;51.046;4.498;2023-03-14T15:01:14;23.40;30.00
29539;DHT22;16482;51.046;4.498;2023-03-14T15:03:42;23.40;29.90
29539;DHT22;16482;51.046;4.498;2023-03-14T15:06:11;23.40;29.80
29539;DHT22;16482;51.046;4.498;2023-03-14T15:08:37;23.40;29.70
29539;DHT22;16482;51.046;4.498;2023-03-14T15:11:03;23.40;29.50
29539;DHT22;16482;51.046;4.498;2023-03-14T15:13:30;23.40;29.40
29539;DHT22;16482;51.046;4.498;2023-03-14T15:15:56;23.40;29.30
29539;DHT22;16482;51.046;4.498;2023-03-14T15:18:46;23.40;29.20
29539;DHT22;16482;51.046;4.498;2023-03-14T15:21:13;23.40;29.10
29539;DHT22;16482;51.046;4.498;2023-03-14T15:23:39;23.30;29.00
29539;DHT22;16482;51.046;4.498;2023-03-14T15:26:12;23.40;28.90
29539;DHT22;16482;51.046;4.498;2023-03-14T15:28:39;23.40;28.90
29539;DHT22;16482;51.046;4.498;2023-03-14T15:31:08;23.30;28.80
29539;DHT22;16482;51.046;4.498;2023-03-14T15:33:34;23.30;28.70
29539;DHT22;16482;51.046;4.498;2023-03-14T15:36:00;23.30;28.90
29539;DHT22;16482;51.046;4.498;2023-03-14T15:38:29;23.30;29.40
29539;DHT22;16482;51.046;4.498;2023-03-14T15:40:55;23.30;29.70
29539;DHT22;16482;51.046;4.498;2023-03-14T15:43:23;23.30;29.90
29539;DHT22;16482;51.046;4.498;2023-03-14T15:46:12;23.40;30.00
29539;DHT22;16482;51.046;4.498;2023-03-14T15:48:38;23.50;30.00
29539;DHT22;16482;51.046;4.498;2023-03-14T15:51:04;23.40;30.30
29539;DHT22;16482;51.046;4.498;2023-03-14T15:53:30;23.50;30.30
29539;DHT22;16482;51.046;4.498;2023-03-14T15:55:56;23.50;30.20
29539;DHT22;16482;51.046;4.498;2023-03-14T15:58:24;23.60;30.10
29539;DHT22;16482;51.046;4.498;2023-03-14T16:01:01;23.70;30.00
29539;DHT22;16482;51.046;4.498;2023-03-14T16:03:30;23.70;29.90
29539;DHT22;16482;51.046;4.498;2023-03-14T16:05:56;23.70;29.80
29539;DHT22;16482;51.046;4.498;2023-03-14T16:08:31;23.80;29.80
29539;DHT22;16482;51.046;4.498;2023-03-14T16:10:58;23.90;29.80
29539;DHT22;16482;51.046;4.498;2023-03-14T16:13:27;23.90;29.70
29539;DHT22;16482;51.046;4.498;2023-03-14T16:18:32;23.90;29.70
29539;DHT22;16482;51.046;4.498;2023-03-14T16:20:59;24.00;29.50
29539;DHT22;16482;51.046;4.498;2023-03-14T16:23:28;24.00;29.60
29539;DHT22;16482;51.046;4.498;2023-03-14T16:25:57;24.00;29.60
29539;DHT22;16482;51.046;4.498;2023-03-14T16:28:25;24.00;29.40
29539;DHT22;16482;51.046;4.498;2023-03-14T16:31:03;24.10;29.50
29539;DHT22;16482;51.046;4.498;2023-03-14T16:33:30;24.10;29.50
29539;DHT22;16482;51.046;4.498;2023-03-14T16:35:58;24.10;29.40
29539;DHT22;16482;51.046;4.498;2023-03-14T16:38:31;24.20;29.30
29539;DHT22;16482;51.046;4.498;2023-03-14T16:41:05;24.20;29.30
29539;DHT22;16482;51.046;4.498;2023-03-14T16:43:32;24.30;29.30
29539;DHT22;16482;51.046;4.498;2023-03-14T16:45:59;24.30;29.30
29539;DHT22;16482;51.046;4.498;2023-03-14T16:48:28;24.30;29.20
29539;DHT22;16482;51.046;4.498;2023-03-14T16:50:57;24.30;29.00
29539;DHT22;16482;51.046;4.498;2023-03-14T16:53:30;24.30;29.10
29539;DHT22;16482;51.046;4.498;2023-03-14T16:55:58;24.30;29.10
29539;DHT22;16482;51.046;4.498;2023-03-14T16:58:27;24.30;29.10
29539;DHT22;16482;51.046;4.498;2023-03-14T17:00:55;24.30;29.00
29539;DHT22;16482;51.046;4.498;2023-03-14T17:03:31;24.30;29.00
29539;DHT22;16482;51.046;4.498;2023-03-14T17:05:57;24.40;29.10
29539;DHT22;16482;51.046;4.498;2023-03-14T17:08:25;24.40;29.00